»·PEaware :: N206DS KCPR-KBIL

N206DS :: KCPR-KBIL

FLIGHT INFORMATION

Flight Status: Arrived
Operator: Privately registered:
United States
More flights under this callsign
Pilot: Anonymous 26047 (26047)
Aircraft: BEECH AIRCRAFT BARON
(BE58)
More flights by this aircraft type
Origin: KCPR Natrona Co Intl
United States
Destination: KBIL Billings Logan Intl
United States
More flights between these airports :: More routes between these airports
Route: DDY V611 SHR V86 BIL
File this flight plan on PilotEdge
Remarks:
Altitude:
(Current/Filed)
8,500ft
Speed:
(Current/Filed)
190kts
Departed: 11-Jan-20 07:13 PM
Arrived: 11-Jan-20 08:31 PM
Distance/Time
Traveled:
195nm/1:18
Distance/Time
To Go:
Arrived

Flight Plot

Page will automatically refresh every two minutes.

Flight plan parsing failed; only flown route is shown


Map Options




Map Legend


Flown Route
Filed Route
Departure Airport
Arrival Airport
Navaid (VOR, NDB)
Fix

Horizontal Profiles

Position Reports

Time Latitude Longitude Heading Altitude Ground
Speed
11-Jan-20 19:02 42.905879 -106.455315 313 5351ft 0kts
11-Jan-20 19:03 42.905879 -106.455315 313 5351ft 0kts
11-Jan-20 19:04 42.905879 -106.455315 313 5351ft 0kts
11-Jan-20 19:05 42.905879 -106.455315 313 5351ft 0kts
11-Jan-20 19:06 42.905879 -106.455315 313 5351ft 0kts
11-Jan-20 19:07 42.906696 -106.454843 43 5351ft 14kts
11-Jan-20 19:08 42.911222 -106.449006 44 5351ft 26kts
11-Jan-20 19:09 42.912743 -106.448020 309 5351ft 0kts
11-Jan-20 19:10 42.912743 -106.448019 309 5351ft 0kts
11-Jan-20 19:11 42.912743 -106.448019 309 5351ft 0kts
11-Jan-20 19:12 42.911806 -106.450987 224 5351ft 57kts
11-Jan-20 19:13 42.892401 -106.474787 222 6325ft 92kts
11-Jan-20 19:14 42.898544 -106.504430 358 6911ft 159kts
11-Jan-20 19:15 42.939614 -106.482753 346 6874ft 170kts
11-Jan-20 19:16 42.985961 -106.486666 17 7430ft 168kts
11-Jan-20 19:17 43.025826 -106.448182 26 7875ft 177kts
11-Jan-20 19:18 43.068055 -106.414867 25 8396ft 176kts
11-Jan-20 19:19 43.110768 -106.380793 25 8810ft 176kts
11-Jan-20 19:20 43.152925 -106.346563 25 9206ft 175kts
11-Jan-20 19:21 43.195001 -106.311912 25 9513ft 178kts
11-Jan-20 19:22 43.242035 -106.303849 348 9083ft 175kts
11-Jan-20 19:23 43.291558 -106.311020 348 8506ft 174kts
11-Jan-20 19:24 43.337488 -106.318323 347 8463ft 160kts
11-Jan-20 19:25 43.381326 -106.325710 347 8515ft 162kts
11-Jan-20 19:26 43.428794 -106.334596 343 8555ft 177kts
11-Jan-20 19:27 43.478925 -106.346418 346 8500ft 184kts
11-Jan-20 19:28 43.530046 -106.355988 347 8493ft 184kts
11-Jan-20 19:29 43.581542 -106.364893 348 8493ft 184kts
11-Jan-20 19:30 43.632630 -106.373528 348 8493ft 184kts
11-Jan-20 19:31 43.683762 -106.382396 349 8443ft 184kts
11-Jan-20 19:32 43.734763 -106.390824 349 8426ft 182kts
11-Jan-20 19:33 43.784960 -106.399389 347 8428ft 178kts
11-Jan-20 19:34 43.834123 -106.407541 347 8426ft 175kts
11-Jan-20 19:35 43.882785 -106.415836 347 8428ft 175kts
11-Jan-20 19:36 43.931232 -106.424043 347 8428ft 174kts
11-Jan-20 19:37 43.978274 -106.438361 341 8438ft 172kts
11-Jan-20 19:38 44.023305 -106.459781 329 8428ft 169kts
11-Jan-20 19:39 44.065933 -106.487921 332 8424ft 170kts
11-Jan-20 19:40 44.109300 -106.514835 330 8428ft 169kts
11-Jan-20 19:41 44.151719 -106.543601 329 8429ft 169kts
11-Jan-20 19:42 44.193541 -106.572919 328 8491ft 168kts
11-Jan-20 19:43 44.235397 -106.602632 328 8492ft 168kts
11-Jan-20 19:44 44.279468 -106.629044 335 8494ft 174kts
11-Jan-20 19:45 44.323679 -106.660039 328 8500ft 178kts
11-Jan-20 19:46 44.367501 -106.694317 329 8496ft 179kts
11-Jan-20 19:47 44.411631 -106.728212 329 8495ft 179kts
11-Jan-20 19:48 44.455742 -106.761964 327 8520ft 177kts
11-Jan-20 19:49 44.498569 -106.794826 327 8487ft 173kts
11-Jan-20 19:50 44.540762 -106.827417 327 8494ft 172kts
11-Jan-20 19:51 44.582660 -106.859769 327 8516ft 170kts
11-Jan-20 19:52 44.624455 -106.892056 327 8514ft 170kts
11-Jan-20 19:53 44.666043 -106.924229 327 8513ft 169kts
11-Jan-20 19:55 44.707552 -106.956390 328 8512ft 169kts
11-Jan-20 19:56 44.749126 -106.988145 328 8512ft 169kts
11-Jan-20 19:57 44.790688 -107.020400 328 8512ft 169kts
11-Jan-20 19:58 44.831960 -107.052524 328 8512ft 168kts
11-Jan-20 19:59 44.868243 -107.093533 312 8522ft 166kts
11-Jan-20 20:00 44.900209 -107.141279 306 8505ft 167kts
11-Jan-20 20:01 44.928946 -107.193240 309 8509ft 167kts
11-Jan-20 20:02 44.959301 -107.243348 310 8511ft 167kts
11-Jan-20 20:03 44.990547 -107.293316 310 8512ft 170kts
11-Jan-20 20:04 45.022321 -107.343740 311 8513ft 171kts
11-Jan-20 20:05 45.054315 -107.394353 311 8501ft 171kts
11-Jan-20 20:06 45.086200 -107.444827 311 8501ft 171kts
11-Jan-20 20:07 45.117965 -107.495841 302 8489ft 172kts
11-Jan-20 20:08 45.145419 -107.551838 302 8504ft 173kts
11-Jan-20 20:09 45.177629 -107.603909 310 8506ft 174kts
11-Jan-20 20:10 45.210392 -107.655541 308 8504ft 174kts
11-Jan-20 20:11 45.242216 -107.707113 309 8549ft 174kts
11-Jan-20 20:12 45.274341 -107.758127 307 8548ft 171kts
11-Jan-20 20:13 45.305138 -107.807641 309 8544ft 164kts
11-Jan-20 20:14 45.335280 -107.855843 309 8548ft 162kts
11-Jan-20 20:15 45.365378 -107.904038 309 8395ft 163kts
11-Jan-20 20:15 45.390862 -107.944952 309 7995ft 168kts
11-Jan-20 20:17 45.427511 -108.003836 309 7350ft 171kts
11-Jan-20 20:18 45.459368 -108.055105 309 6791ft 172kts
11-Jan-20 20:18 45.485788 -108.097900 308 6460ft 172kts
11-Jan-20 20:20 45.522314 -108.156979 307 6508ft 170kts
11-Jan-20 20:20 45.548715 -108.199695 307 6500ft 172kts
11-Jan-20 20:21 45.580498 -108.251337 307 6499ft 172kts
11-Jan-20 20:23 45.617020 -108.310601 307 6216ft 165kts
11-Jan-20 20:23 45.641921 -108.351012 307 5710ft 159kts
11-Jan-20 20:24 45.680609 -108.377964 354 5187ft 167kts
11-Jan-20 20:25 45.724904 -108.375097 4 5161ft 154kts
11-Jan-20 20:26 45.764009 -108.376431 301 5140ft 128kts
11-Jan-20 20:27 45.778319 -108.422169 280 4791ft 118kts
11-Jan-20 20:28 45.788297 -108.466730 288 4428ft 102kts
11-Jan-20 20:29 45.798465 -108.503650 287 3910ft 97kts
11-Jan-20 20:30 45.805250 -108.528244 266 3655ft 15kts
11-Jan-20 20:31 45.804555 -108.529005 192 3655ft 3kts
11-Jan-20 20:32 45.802592 -108.527058 199 3655ft 4kts

Navigation Log

Ident Type
Flight plan parsing failed, navigation log unavailable